ADDS METAR Data INFO
IDs: Format: Raw Decoded Include TAF

Data at: 1121 UTC 21 Feb 2018

KOSC 201515Z AUTO 20004KT 7SM UP OVC003 02/02 A2987 RMK AO2 T00190016
KOSC 201455Z AUTO 00000KT 1 3/4SM UP OVC005 02/01 A2988 RMK AO2 P0008 60008 T00150012
KOSC 201435Z AUTO 00000KT 3SM -SN OVC005 01/01 A2990 RMK AO2 P0007 T00130011
KOSC 201415Z AUTO 00000KT 1SM -SN OVC003 01/01 A2989 RMK AO2 P0004 T00110009
KOSC 201355Z AUTO 00000KT 1/2SM UP OVC003 01/01 A2988 RMK AO2 T00090007
KOSC 201335Z AUTO 00000KT 1/2SM UP OVC003 01/01 A2987 RMK AO2 T00080006
KOSC 201315Z AUTO 00000KT 1/4SM UP OVC003 01/01 A2987 RMK AO2 T00070005
KOSC 201255Z AUTO 03003KT 1/2SM FG OVC003 01/01 A2988 RMK AO2 T00060005
KOSC 201235Z AUTO 31004KT 1 1/4SM -SN OVC003 01/01 A2989 RMK AO2 T00070005
KOSC 201215Z AUTO 34003KT 1 3/4SM BR OVC003 01/00 A2987 RMK AO2 T00050003
KOSC 201155Z AUTO 34004KT 2 1/2SM BR OVC003 01/00 A2987 RMK AO2 60055 70076 T00060003 10010 20006
KOSC 201135Z AUTO 35003KT 3SM UP OVC003 01/01 A2988 RMK AO2 T00070005
KOSC 201115Z AUTO 02003KT 4SM UP OVC003 01/01 A2989 RMK AO2 T00090005
KOSC 201055Z AUTO 35004KT 10SM OVC003 01/01 A2989 RMK AO2 P0004 T00100006
KOSC 201035Z AUTO 02004KT 10SM OVC003 01/01 A2989 RMK AO2 P0004 T00080005
KOSC 201015Z AUTO 36005KT 2 1/2SM -SN OVC003 01/01 A2989 RMK AO2 VIS 1/2V5 P0004 T00080005
KOSC 200955Z AUTO 36006KT 2SM -SN OVC003 01/01 A2989 RMK AO2 VIS 1 3/4V2 1/2 P0010 T00080005
KOSC 200935Z AUTO 03008KT 4SM -SN OVC003 01/01 A2988 RMK AO2 P0003 T00100006
KOSC 200915Z AUTO 03005KT 10SM UP OVC003 01/01 A2989 RMK AO2 T00080005
KOSC 200855Z AUTO 03005KT 4SM UP OVC003 01/01 A2989 RMK AO2 P0010 60039 T00080005
KOSC 200835Z AUTO 02006KT 3SM -SN OVC003 01/01 A2990 RMK AO2 P0010 T00100006
KOSC 200815Z AUTO 04004KT 2 1/2SM -SN OVC003 01/01 A2990 RMK AO2 P0008 T00090006
KOSC 200755Z AUTO 04005KT 2 1/2SM -SN OVC003 01/01 A2990 RMK AO2 P0014 T00090005
KOSC 200735Z AUTO 02005KT 4SM -SN OVC003 01/01 A2991 RMK AO2 P0004 T00080005
KOSC 200715Z AUTO 02005KT 3SM -SN OVC003 01/01 A2991 RMK AO2 P0002 T00100007
KOSC 200655Z AUTO 10004KT 3SM -SN OVC003 01/01 A2990 RMK AO2 P0013 T00100006
KOSC 200635Z AUTO 06004KT 2SM -SN OVC003 01/01 A2993 RMK AO2 P0009 T00100007
KOSC 200615Z AUTO 06005KT 2SM UP OVC003 01/01 A2992 RMK AO2 P0003 T00100006
KOSC 200555Z AUTO 06007KT 3SM -SN OVC003 01/01 A2992 RMK AO2 P0004 60009 T00080005 10010 20003
KOSC 200535Z AUTO 07005KT 3SM UP OVC003 01/01 A2993 RMK AO2 P0004 T00080005
KOSC 200515Z AUTO 07006KT 1 3/4SM -SN OVC003 01/01 A2993 RMK AO2 P0003 T00080005
KOSC 200455Z AUTO 07006KT 3SM UP OVC003 01/01 A2995 RMK AO2 T00080005
KOSC 200435Z AUTO 06006KT 4SM BR OVC003 01/01 A2996 RMK AO2 T00080005
KOSC 200415Z AUTO 35004KT 4SM -SN OVC003 01/01 A2996 RMK AO2 T00070005
KOSC 200355Z AUTO 03006KT 2 1/2SM UP OVC003 01/00 A2996 RMK AO2 P0003 T00060004
KOSC 200335Z AUTO 04006KT 2 1/2SM UP OVC003 01/01 A2996 RMK AO2 P0001 T00070005
KOSC 200315Z AUTO 04006KT 2SM UP OVC003 01/01 A2996 RMK AO2 P0001 T00070005
KOSC 200255Z AUTO 07005KT 1 3/4SM UP OVC003 01/01 A2996 RMK AO2 60001 T00070005
KOSC 200235Z AUTO 06004KT 1 1/2SM UP OVC003 01/00 A2996 RMK AO2 T00050002
KOSC 200215Z AUTO 05005KT 1 1/2SM UP OVC003 01/00 A2996 RMK AO2 T00050002
KOSC 200155Z AUTO 05003KT 1 3/4SM UP OVC003 01/00 A2998 RMK AO2 T00050001
KOSC 200135Z AUTO 04005KT 2SM UP OVC003 01/00 A2998 RMK AO2 T00060002
KOSC 200115Z AUTO 04005KT 2 1/2SM BR OVC003 01/00 A2997 RMK AO2 T00060002
KOSC 200055Z AUTO 03005KT 2 1/2SM UP OVC003 01/00 A2997 RMK AO2 P0001 T00050001
KOSC 200035Z AUTO 02006KT 2 1/2SM UP OVC003 01/00 A2997 RMK AO2 P0001 T00050000
KOSC 200015Z AUTO 03005KT 2 1/2SM UP OVC003 01/00 A2998 RMK AO2 P0001 T00050000
KOSC 192355Z AUTO 05008KT 1 3/4SM -SN OVC005 01/00 A2997 RMK AO2 P0010 60010 T00050000 10051 20005
KOSC 192335Z AUTO 36004KT 2SM -SN OVC005 01/00 A2999 RMK AO2 P0002 T00050000